Time;durP1;ratioP1;P1;durP2;ratioP2;P2;SDS_P1;SDS_P2;PMS_P1;PMS_P2;Temp;Humidity;BMP_temperature;BMP_pressure;BME280_temperature;BME280_humidity;BME280_pressure;Samples;Min_cycle;Max_cycle;Signal;HPM_P1;HPM_P2
2022/06/03 00:01:31;;;;;;;7.20;5.30;;;;;;;;;;5056850;28;20512;-66
2022/06/03 00:04:07;;;;;;;5.53;5.00;;;;;;;;;;5056492;28;20891;-67
2022/06/03 00:06:41;;;;;;;5.23;4.83;;;;;;;;;;5056274;28;20429;-66
2022/06/03 00:09:35;;;;;;;4.80;4.40;;;;;;;;;;5056421;28;20981;-66
2022/06/03 00:12:16;;;;;;;5.47;4.97;;;;;;;;;;4999028;28;20567;-66
2022/06/03 00:14:53;;;;;;;4.90;4.50;;;;;;;;;;5056688;28;20794;-67
2022/06/03 00:17:33;;;;;;;7.33;4.83;;;;;;;;;;5056600;28;20552;-66
2022/06/03 00:20:06;;;;;;;5.53;4.93;;;;;;;;;;5056579;28;20464;-66
2022/06/03 00:22:47;;;;;;;6.57;5.83;;;;;;;;;;5055961;28;20472;-66
2022/06/03 00:25:26;;;;;;;5.57;5.07;;;;;;;;;;5056889;28;20433;-67
2022/06/03 00:28:02;;;;;;;6.63;5.93;;;;;;;;;;5055883;28;20426;-67
2022/06/03 00:30:34;;;;;;;5.57;5.10;;;;;;;;;;5055854;28;20441;-67
2022/06/03 00:33:08;;;;;;;5.97;5.47;;;;;;;;;;5055622;28;20501;-66
2022/06/03 00:35:41;;;;;;;6.23;5.60;;;;;;;;;;5055789;28;20453;-66
2022/06/03 00:38:16;;;;;;;5.80;5.33;;;;;;;;;;5055630;28;20937;-66
2022/06/03 00:40:53;;;;;;;11.00;5.67;;;;;;;;;;5056599;28;20430;-65
2022/06/03 00:43:28;;;;;;;6.20;5.70;;;;;;;;;;5055664;28;20598;-66
2022/06/03 00:46:01;;;;;;;6.40;5.50;;;;;;;;;;5055527;28;20445;-66
2022/06/03 00:48:42;;;;;;;7.97;5.33;;;;;;;;;;5056298;28;20449;-65
2022/06/03 00:51:27;;;;;;;6.53;5.30;;;;;;;;;;5055406;28;20465;-65
2022/06/03 00:54:09;;;;;;;5.40;4.90;;;;;;;;;;5056186;28;20770;-65
2022/06/03 00:56:45;;;;;;;5.73;5.33;;;;;;;;;;5055323;28;20516;-65
2022/06/03 00:59:22;;;;;;;6.83;5.50;;;;;;;;;;5055750;28;20518;-65
2022/06/03 01:01:54;;;;;;;5.73;5.27;;;;;;;;;;5055268;28;20512;-65
2022/06/03 01:04:29;;;;;;;6.43;5.83;;;;;;;;;;5055091;28;20492;-64
2022/06/03 01:07:02;;;;;;;6.33;5.83;;;;;;;;;;5055453;28;20433;-65
2022/06/03 01:09:40;;;;;;;6.90;6.20;;;;;;;;;;5055419;28;20528;-65
2022/06/03 01:12:16;;;;;;;6.37;5.63;;;;;;;;;;5054908;28;20518;-64
2022/06/03 01:14:58;;;;;;;7.00;6.30;;;;;;;;;;5055329;28;20520;-65
2022/06/03 01:17:30;;;;;;;7.03;6.43;;;;;;;;;;5055425;28;20433;-65
2022/06/03 01:20:04;;;;;;;6.70;6.10;;;;;;;;;;5055852;28;20431;-65
2022/06/03 01:22:49;;;;;;;8.00;5.73;;;;;;;;;;5055451;28;20433;-65
2022/06/03 01:25:25;;;;;;;7.77;7.00;;;;;;;;;;5045402;28;20540;-64
2022/06/03 01:27:59;;;;;;;6.10;5.60;;;;;;;;;;5054878;28;20943;-64
2022/06/03 01:30:37;;;;;;;7.10;6.50;;;;;;;;;;5055520;28;20521;-65
2022/06/03 01:33:20;;;;;;;6.90;6.20;;;;;;;;;;5055256;28;20497;-64
2022/06/03 01:36:02;;;;;;;7.20;6.03;;;;;;;;;;5054997;28;20508;-65
2022/06/03 01:38:40;;;;;;;6.47;5.87;;;;;;;;;;5054890;28;20434;-65
2022/06/03 01:41:18;;;;;;;8.50;7.20;;;;;;;;;;5055667;28;20781;-64
2022/06/03 01:43:59;;;;;;;6.18;5.68;;;;;;;;;;5054838;28;20483;-64
2022/06/03 01:46:30;;;;;;;7.10;6.47;;;;;;;;;;5054576;28;20306;-65
2022/06/03 01:49:18;;;;;;;6.83;6.30;;;;;;;;;;5054300;28;21010;-64
2022/06/03 01:52:06;;;;;;;6.85;6.32;;;;;;;;;;5054957;28;20559;-64
2022/06/03 01:54:57;;;;;;;8.53;6.50;;;;;;;;;;5047108;28;20293;-66
2022/06/03 01:57:56;;;;;;;7.07;6.40;;;;;;;;;;5044104;28;20998;-65
2022/06/03 02:00:26;;;;;;;8.27;7.20;;;;;;;;;;5054671;28;20495;-64
2022/06/03 02:03:11;;;;;;;7.90;6.90;;;;;;;;;;5054028;28;20453;-64
2022/06/03 02:05:49;;;;;;;7.00;6.40;;;;;;;;;;5054373;28;20444;-64
2022/06/03 02:08:37;;;;;;;7.60;7.00;;;;;;;;;;5054722;28;20483;-64
2022/06/03 02:11:23;;;;;;;7.72;7.03;;;;;;;;;;5047823;28;20194;-64
2022/06/03 02:14:09;;;;;;;7.60;6.90;;;;;;;;;;5054287;28;20194;-64
2022/06/03 02:16:55;;;;;;;7.17;6.57;;;;;;;;;;5054709;28;20503;-64
2022/06/03 02:19:28;;;;;;;8.70;6.27;;;;;;;;;;5054095;28;20443;-64
2022/06/03 02:22:04;;;;;;;7.33;6.13;;;;;;;;;;5054540;28;20437;-64
2022/06/03 02:24:38;;;;;;;7.83;7.13;;;;;;;;;;5053826;28;20516;-64
2022/06/03 02:27:18;;;;;;;6.95;6.35;;;;;;;;;;5053951;28;20439;-64
2022/06/03 02:33:07;;;;;;;8.30;6.23;;;;;;;;;;5053814;28;20992;-64
2022/06/03 02:35:52;;;;;;;9.00;7.27;;;;;;;;;;5053848;28;20777;-64
2022/06/03 02:38:34;;;;;;;7.87;7.27;;;;;;;;;;5038341;28;20456;-64
2022/06/03 02:41:23;;;;;;;7.63;6.97;;;;;;;;;;5051256;28;20528;-64
2022/06/03 02:44:03;;;;;;;7.37;6.60;;;;;;;;;;5053762;28;20513;-64
2022/06/03 02:46:37;;;;;;;7.27;6.67;;;;;;;;;;5053644;28;20430;-64
2022/06/03 02:49:29;;;;;;;8.33;7.63;;;;;;;;;;5053649;28;20438;-64
2022/06/03 02:52:30;;;;;;;8.52;7.88;;;;;;;;;;5053578;28;20494;-64
2022/06/03 02:55:10;;;;;;;7.93;7.30;;;;;;;;;;5053589;28;20194;-64
2022/06/03 02:57:47;;;;;;;8.80;6.97;;;;;;;;;;5054075;28;20196;-65
2022/06/03 03:00:19;;;;;;;7.53;6.93;;;;;;;;;;5053998;28;20561;-64
2022/06/03 03:02:57;;;;;;;8.85;7.05;;;;;;;;;;5053640;28;20441;-64
2022/06/03 03:05:51;;;;;;;7.50;6.90;;;;;;;;;;5054215;28;20539;-64
2022/06/03 03:08:33;;;;;;;7.88;7.18;;;;;;;;;;5053412;28;20429;-64
2022/06/03 03:11:11;;;;;;;7.95;7.07;;;;;;;;;;5040611;28;20652;-64
2022/06/03 03:14:02;;;;;;;7.13;6.53;;;;;;;;;;5052837;28;20268;-64
2022/06/03 03:16:42;;;;;;;8.80;8.00;;;;;;;;;;5038031;28;20306;-64
2022/06/03 03:19:28;;;;;;;9.60;7.20;;;;;;;;;;5053717;28;20289;-64
2022/06/03 03:22:21;;;;;;;8.00;7.30;;;;;;;;;;5053437;28;20218;-64
2022/06/03 03:25:05;;;;;;;6.90;6.30;;;;;;;;;;5052871;28;20183;-64
2022/06/03 03:27:44;;;;;;;8.57;7.77;;;;;;;;;;5014611;28;20201;-64
2022/06/03 03:30:19;;;;;;;8.27;7.40;;;;;;;;;;5057038;28;20437;-65
2022/06/03 03:32:59;;;;;;;7.40;6.80;;;;;;;;;;5057021;28;20299;-64
2022/06/03 03:35:38;;;;;;;10.13;7.93;;;;;;;;;;5057116;28;20551;-65
2022/06/03 03:38:23;;;;;;;8.15;7.38;;;;;;;;;;5056942;28;20433;-65
2022/06/03 03:41:08;;;;;;;8.93;7.93;;;;;;;;;;5056823;28;20200;-65
2022/06/03 03:43:52;;;;;;;7.60;7.00;;;;;;;;;;5057138;28;20528;-65
2022/06/03 03:46:38;;;;;;;7.57;6.80;;;;;;;;;;5057102;28;20228;-65
2022/06/03 03:49:20;;;;;;;8.33;7.60;;;;;;;;;;5056619;28;20722;-64
2022/06/03 03:51:58;;;;;;;7.40;6.70;;;;;;;;;;5056490;28;20964;-65
2022/06/03 03:54:44;;;;;;;8.13;7.35;;;;;;;;;;5056082;28;20441;-65
2022/06/03 03:57:26;;;;;;;8.90;8.10;;;;;;;;;;5055859;28;20197;-65
2022/06/03 04:00:05;;;;;;;7.35;6.65;;;;;;;;;;5056889;28;20552;-65
2022/06/03 04:02:50;;;;;;;7.85;7.20;;;;;;;;;;5056402;28;20198;-65
2022/06/03 04:05:35;;;;;;;8.77;7.28;;;;;;;;;;5056412;28;20216;-66
2022/06/03 04:08:20;;;;;;;8.93;7.23;;;;;;;;;;5057252;28;20348;-65
2022/06/03 04:11:03;;;;;;;7.40;6.78;;;;;;;;;;5056015;28;20884;-66
2022/06/03 04:13:45;;;;;;;7.38;6.78;;;;;;;;;;5056906;28;20245;-65
2022/06/03 04:16:29;;;;;;;7.80;7.10;;;;;;;;;;5056218;28;20646;-66
2022/06/03 04:19:17;;;;;;;7.22;6.53;;;;;;;;;;5056850;28;20444;-65
2022/06/03 04:22:14;;;;;;;7.40;6.73;;;;;;;;;;5014970;28;20230;-65
2022/06/03 04:24:48;;;;;;;6.97;6.40;;;;;;;;;;5055913;28;20448;-65
2022/06/03 04:27:34;;;;;;;7.27;6.57;;;;;;;;;;5056806;28;20520;-66
2022/06/03 04:30:26;;;;;;;7.13;6.53;;;;;;;;;;5056173;28;20437;-66
2022/06/03 04:33:12;;;;;;;8.03;6.30;;;;;;;;;;5055955;28;20465;-65
2022/06/03 04:36:08;;;;;;;7.10;6.50;;;;;;;;;;5055711;28;20567;-65
2022/06/03 04:38:54;;;;;;;6.93;6.30;;;;;;;;;;5055934;28;20512;-65
2022/06/03 04:41:36;;;;;;;8.60;6.90;;;;;;;;;;5055914;28;20858;-65
2022/06/03 04:44:36;;;;;;;6.67;6.17;;;;;;;;;;5055508;28;20444;-65
2022/06/03 04:50:23;;;;;;;8.97;8.17;;;;;;;;;;5173550;27;20526;-65
2022/06/03 04:53:09;;;;;;;6.87;6.27;;;;;;;;;;5153129;27;20455;-66
2022/06/03 04:56:02;;;;;;;6.90;6.30;;;;;;;;;;5152015;27;20944;-66
2022/06/03 04:58:53;;;;;;;8.53;6.20;;;;;;;;;;5152556;27;20529;-65
2022/06/03 05:01:40;;;;;;;6.23;5.70;;;;;;;;;;5057790;27;20870;-66
2022/06/03 05:04:29;;;;;;;5.97;5.47;;;;;;;;;;5151865;27;20430;-66
2022/06/03 05:07:20;;;;;;;6.23;5.70;;;;;;;;;;5152628;27;20427;-66
2022/06/03 05:10:06;;;;;;;8.53;6.30;;;;;;;;;;5152380;27;20467;-66
2022/06/03 05:12:48;;;;;;;9.37;5.93;;;;;;;;;;5152094;27;20520;-66
2022/06/03 05:15:33;;;;;;;6.70;6.10;;;;;;;;;;5152062;27;20835;-68
2022/06/03 05:18:12;;;;;;;6.30;5.70;;;;;;;;;;5151609;27;20477;-64
2022/06/03 05:20:50;;;;;;;6.20;5.70;;;;;;;;;;5152361;27;20426;-65
2022/06/03 05:23:44;;;;;;;6.37;5.87;;;;;;;;;;5152036;27;20482;-65
2022/06/03 05:26:26;;;;;;;6.70;4.97;;;;;;;;;;5091884;27;20522;-65
2022/06/03 05:29:06;;;;;;;5.93;5.40;;;;;;;;;;5134915;27;20830;-65
2022/06/03 05:32:07;;;;;;;7.30;6.20;;;;;;;;;;5151432;27;20508;-66
2022/06/03 05:34:49;;;;;;;8.17;5.47;;;;;;;;;;5152095;27;20773;-66
2022/06/03 05:37:40;;;;;;;7.07;5.50;;;;;;;;;;5151845;27;20482;-65
2022/06/03 05:40:30;;;;;;;6.07;5.57;;;;;;;;;;5151179;27;20421;-66
2022/06/03 05:43:16;;;;;;;5.43;5.03;;;;;;;;;;5126244;27;20452;-65
2022/06/03 05:45:54;;;;;;;5.83;5.33;;;;;;;;;;5135337;27;20778;-65
2022/06/03 05:48:25;;;;;;;8.70;5.90;;;;;;;;;;5150916;27;20488;-65
2022/06/03 05:50:55;;;;;;;7.10;5.60;;;;;;;;;;5150875;27;20529;-65
2022/06/03 05:53:31;;;;;;;7.60;5.47;;;;;;;;;;5151365;27;20500;-66
2022/06/03 05:56:04;;;;;;;6.73;5.67;;;;;;;;;;5151601;27;20557;-65
2022/06/03 05:58:39;;;;;;;9.70;6.10;;;;;;;;;;5151716;27;20516;-65
2022/06/03 06:01:15;;;;;;;6.40;5.70;;;;;;;;;;5138625;27;20512;-66
2022/06/03 06:03:46;;;;;;;8.57;5.70;;;;;;;;;;5137082;27;20428;-66
2022/06/03 06:06:20;;;;;;;6.47;5.77;;;;;;;;;;5137259;27;20831;-65
2022/06/03 06:08:52;;;;;;;6.30;5.70;;;;;;;;;;5137298;27;20520;-65
2022/06/03 06:11:21;;;;;;;8.17;4.93;;;;;;;;;;5137171;27;20427;-65
2022/06/03 06:14:07;;;;;;;7.23;6.53;;;;;;;;;;5136996;27;20470;-65
2022/06/03 06:16:36;;;;;;;5.90;5.33;;;;;;;;;;5136553;27;20513;-65
2022/06/03 06:19:05;;;;;;;5.93;5.43;;;;;;;;;;5137030;27;20490;-65
2022/06/03 06:21:47;;;;;;;7.20;5.93;;;;;;;;;;5136502;27;20530;-65
2022/06/03 06:24:18;;;;;;;8.20;5.80;;;;;;;;;;5137004;27;20484;-65
2022/06/03 06:27:19;;;;;;;6.33;5.83;;;;;;;;;;5136782;27;20444;-65
2022/06/03 06:30:01;;;;;;;6.50;5.90;;;;;;;;;;5033430;28;20492;-66
2022/06/03 06:32:40;;;;;;;9.97;7.60;;;;;;;;;;5033074;28;20483;-65
2022/06/03 06:35:25;;;;;;;6.60;6.00;;;;;;;;;;5098591;27;20790;-65
2022/06/03 06:38:00;;;;;;;5.63;5.20;;;;;;;;;;5136585;27;20446;-65
2022/06/03 06:40:33;;;;;;;9.10;5.07;;;;;;;;;;5136513;27;20409;-66
2022/06/03 06:43:10;;;;;;;6.17;5.60;;;;;;;;;;5136123;27;20518;-65
2022/06/03 06:45:40;;;;;;;5.70;5.20;;;;;;;;;;5136193;27;20467;-66
2022/06/03 06:48:16;;;;;;;5.00;4.60;;;;;;;;;;5135900;27;20467;-65
2022/06/03 06:50:47;;;;;;;5.40;4.90;;;;;;;;;;5136165;27;20460;-65
2022/06/03 06:53:18;;;;;;;4.97;4.57;;;;;;;;;;5135950;27;20434;-65
2022/06/03 06:55:52;;;;;;;6.63;5.97;;;;;;;;;;5136244;27;20536;-65
2022/06/03 06:58:28;;;;;;;4.80;4.43;;;;;;;;;;5136261;27;20869;-65
2022/06/03 07:00:56;;;;;;;5.80;5.30;;;;;;;;;;5136460;27;20975;-65
2022/06/03 07:03:29;;;;;;;4.73;4.30;;;;;;;;;;5136915;27;20457;-65
2022/06/03 07:05:58;;;;;;;6.83;5.83;;;;;;;;;;5136464;27;20428;-65
2022/06/03 07:08:26;;;;;;;7.60;5.13;;;;;;;;;;5135854;27;20478;-65
2022/06/03 07:10:57;;;;;;;7.20;5.30;;;;;;;;;;5135608;27;20526;-65
2022/06/03 07:13:26;;;;;;;9.33;5.03;;;;;;;;;;5135108;27;20449;-65
2022/06/03 07:16:02;;;;;;;5.70;5.20;;;;;;;;;;5135952;27;20527;-66
2022/06/03 07:21:24;;;;;;;5.30;4.90;;;;;;;;;;5135572;27;20403;-66
2022/06/03 07:23:51;;;;;;;6.37;5.07;;;;;;;;;;5135717;27;20915;-65
2022/06/03 07:26:35;;;;;;;6.77;5.90;;;;;;;;;;5135856;27;20442;-65
2022/06/03 07:29:06;;;;;;;6.03;5.37;;;;;;;;;;5135677;27;20558;-66
2022/06/03 07:31:36;;;;;;;5.60;5.20;;;;;;;;;;5135271;27;20430;-66
2022/06/03 07:34:06;;;;;;;5.60;5.00;;;;;;;;;;5135621;27;20437;-65
2022/06/03 07:36:39;;;;;;;4.77;4.37;;;;;;;;;;5135181;27;20915;-66
2022/06/03 07:39:15;;;;;;;5.10;4.70;;;;;;;;;;5135199;27;20959;-66
2022/06/03 07:41:47;;;;;;;5.60;5.00;;;;;;;;;;5135024;27;20428;-65
2022/06/03 07:44:15;;;;;;;9.47;6.67;;;;;;;;;;5135070;27;20463;-66
2022/06/03 07:46:47;;;;;;;5.73;5.10;;;;;;;;;;5135159;27;20439;-66
2022/06/03 07:49:15;;;;;;;5.70;5.27;;;;;;;;;;5135088;27;20947;-65
2022/06/03 07:51:44;;;;;;;5.17;4.77;;;;;;;;;;5134840;27;20936;-65
2022/06/03 07:54:14;;;;;;;5.37;4.93;;;;;;;;;;5135150;27;20437;-66
2022/06/03 07:56:42;;;;;;;5.27;4.87;;;;;;;;;;5135332;27;20465;-66
2022/06/03 07:59:15;;;;;;;6.33;4.77;;;;;;;;;;5135032;27;20858;-66
2022/06/03 08:01:43;;;;;;;5.00;4.50;;;;;;;;;;5135549;27;20422;-67
2022/06/03 08:04:15;;;;;;;7.10;4.80;;;;;;;;;;5134964;27;20478;-67
2022/06/03 08:12:13;;;;;;;6.80;4.90;;;;;;;;;;5134599;27;20453;-67
2022/06/03 08:14:42;;;;;;;4.57;4.17;;;;;;;;;;5134973;27;20525;-66
2022/06/03 08:17:11;;;;;;;4.33;4.03;;;;;;;;;;5134429;27;20438;-66
2022/06/03 08:19:40;;;;;;;4.23;3.93;;;;;;;;;;5134935;27;20942;-66
2022/06/03 08:22:09;;;;;;;3.90;3.60;;;;;;;;;;5134184;27;20435;-66
2022/06/03 08:24:37;;;;;;;4.47;4.13;;;;;;;;;;5134456;27;20439;-66
2022/06/03 08:27:06;;;;;;;4.90;4.40;;;;;;;;;;5134776;27;20543;-66
2022/06/03 08:29:35;;;;;;;5.67;4.13;;;;;;;;;;5134167;27;20568;-66
2022/06/03 08:32:07;;;;;;;6.80;4.80;;;;;;;;;;5134792;27;20975;-66
2022/06/03 08:34:36;;;;;;;7.80;4.47;;;;;;;;;;5134270;27;20514;-66
2022/06/03 08:37:04;;;;;;;3.80;3.50;;;;;;;;;;5134196;27;20949;-66
2022/06/03 08:39:32;;;;;;;5.23;3.80;;;;;;;;;;5134573;27;20453;-66
2022/06/03 08:42:04;;;;;;;4.93;4.37;;;;;;;;;;5134492;27;20434;-66
2022/06/03 08:44:35;;;;;;;9.33;3.60;;;;;;;;;;5134373;27;20429;-66
2022/06/03 08:47:06;;;;;;;3.23;2.97;;;;;;;;;;5134543;28;20496;-66
2022/06/03 08:49:41;;;;;;;5.50;3.80;;;;;;;;;;5134627;28;20485;-66
2022/06/03 08:52:11;;;;;;;4.20;3.10;;;;;;;;;;5134120;28;20525;-67
2022/06/03 08:54:41;;;;;;;3.90;3.50;;;;;;;;;;5134234;28;20519;-66
2022/06/03 08:57:12;;;;;;;6.83;5.60;;;;;;;;;;5134315;28;20440;-66
2022/06/03 08:59:41;;;;;;;5.70;5.17;;;;;;;;;;5133972;28;20426;-66
2022/06/03 09:02:10;;;;;;;4.27;3.87;;;;;;;;;;5134264;28;20531;-66
2022/06/03 09:04:40;;;;;;;3.67;3.00;;;;;;;;;;5134304;28;20543;-66
2022/06/03 09:07:12;;;;;;;4.50;3.00;;;;;;;;;;5134242;28;20445;-66
2022/06/03 09:09:43;;;;;;;4.07;3.10;;;;;;;;;;5134242;28;20553;-67
2022/06/03 09:12:14;;;;;;;3.50;3.20;;;;;;;;;;5133947;28;20471;-66
2022/06/03 09:14:42;;;;;;;3.67;3.37;;;;;;;;;;5133927;28;20414;-66
2022/06/03 09:17:16;;;;;;;2.63;2.43;;;;;;;;;;5134129;28;20475;-66
2022/06/03 09:19:45;;;;;;;4.90;3.23;;;;;;;;;;5133702;28;20926;-66
2022/06/03 09:22:15;;;;;;;2.77;2.57;;;;;;;;;;5134058;28;20529;-66
2022/06/03 09:24:43;;;;;;;3.40;3.10;;;;;;;;;;5134413;28;20515;-66
2022/06/03 09:27:13;;;;;;;3.37;3.17;;;;;;;;;;5134019;28;20884;-66
2022/06/03 09:29:41;;;;;;;8.90;3.87;;;;;;;;;;5134140;28;20464;-67
2022/06/03 09:32:10;;;;;;;4.90;2.73;;;;;;;;;;5133673;28;20479;-66
2022/06/03 09:34:41;;;;;;;2.93;2.73;;;;;;;;;;5134214;27;20500;-67
2022/06/03 09:37:10;;;;;;;4.17;3.40;;;;;;;;;;5138166;27;20422;-67
2022/06/03 09:39:39;;;;;;;7.00;4.80;;;;;;;;;;5137883;27;20482;-66
2022/06/03 09:42:06;;;;;;;7.20;4.17;;;;;;;;;;5137747;27;20521;-66
2022/06/03 09:44:34;;;;;;;4.13;3.43;;;;;;;;;;5137315;27;20440;-66
2022/06/03 09:47:04;;;;;;;3.27;3.07;;;;;;;;;;5137768;27;20451;-66
2022/06/03 09:49:33;;;;;;;2.83;2.63;;;;;;;;;;5137363;27;20594;-67
2022/06/03 09:52:02;;;;;;;2.77;2.57;;;;;;;;;;5137534;27;20439;-66
2022/06/03 09:54:30;;;;;;;3.20;2.90;;;;;;;;;;5137331;27;20447;-66
2022/06/03 09:57:08;;;;;;;4.80;3.27;;;;;;;;;;5137143;27;20506;-67
2022/06/03 09:59:36;;;;;;;3.20;2.97;;;;;;;;;;5137425;27;20429;-66
2022/06/03 10:02:04;;;;;;;3.10;2.43;;;;;;;;;;5137088;27;20479;-67
2022/06/03 10:04:31;;;;;;;2.67;2.47;;;;;;;;;;5137384;27;20812;-66
2022/06/03 10:07:00;;;;;;;2.80;2.40;;;;;;;;;;5136922;27;20534;-66
2022/06/03 10:17:45;;;;;;;3.80;2.90;;;;;;;;;;5136911;27;20433;-66
2022/06/03 10:20:12;;;;;;;3.13;2.93;;;;;;;;;;5137125;27;20459;-66
2022/06/03 10:22:40;;;;;;;5.80;3.03;;;;;;;;;;5136681;27;21020;-67
2022/06/03 10:25:09;;;;;;;3.70;3.40;;;;;;;;;;5136831;27;20532;-66
2022/06/03 10:27:37;;;;;;;2.80;2.60;;;;;;;;;;5137406;27;20934;-67
2022/06/03 10:30:06;;;;;;;3.10;2.80;;;;;;;;;;5136291;27;21012;-67
2022/06/03 10:32:34;;;;;;;3.77;3.30;;;;;;;;;;5137597;27;20436;-67
2022/06/03 10:35:06;;;;;;;2.80;2.60;;;;;;;;;;5136300;27;20810;-67
2022/06/03 10:37:34;;;;;;;6.33;3.20;;;;;;;;;;5137150;27;20451;-66
2022/06/03 10:40:01;;;;;;;13.70;4.63;;;;;;;;;;5136659;27;20475;-66
2022/06/03 10:42:29;;;;;;;3.97;3.67;;;;;;;;;;5136895;27;20564;-67
2022/06/03 10:44:59;;;;;;;8.17;3.10;;;;;;;;;;5136190;27;20510;-67
2022/06/03 10:47:33;;;;;;;4.10;3.03;;;;;;;;;;5135998;27;20532;-66
2022/06/03 10:50:02;;;;;;;5.00;4.50;;;;;;;;;;5136680;27;20471;-67
2022/06/03 11:01:07;;;;;;;4.87;3.90;;;;;;;;;;5136125;27;20782;-68
2022/06/03 11:03:37;;;;;;;7.60;6.97;;;;;;;;;;5135891;27;20473;-67
2022/06/03 11:06:08;;;;;;;4.90;3.90;;;;;;;;;;5135763;27;20566;-67
2022/06/03 11:08:48;;;;;;;4.67;3.10;;;;;;;;;;5136331;27;20493;-67
2022/06/03 11:11:15;;;;;;;4.70;3.50;;;;;;;;;;5135705;27;20584;-66
2022/06/03 11:13:43;;;;;;;3.77;3.50;;;;;;;;;;5135845;27;20523;-67
2022/06/03 11:16:16;;;;;;;2.97;2.77;;;;;;;;;;5135517;27;20474;-67
2022/06/03 11:18:44;;;;;;;3.70;2.90;;;;;;;;;;5136443;27;20453;-67
2022/06/03 11:21:19;;;;;;;16.70;3.70;;;;;;;;;;5135925;27;20488;-66
2022/06/03 11:23:46;;;;;;;3.40;3.10;;;;;;;;;;5135800;27;20439;-66
2022/06/03 11:26:13;;;;;;;9.30;3.50;;;;;;;;;;5135599;27;20531;-66
2022/06/03 11:28:42;;;;;;;6.30;3.23;;;;;;;;;;5135733;27;20804;-66
2022/06/03 11:31:13;;;;;;;3.77;2.77;;;;;;;;;;5135153;27;20559;-66
2022/06/03 11:33:46;;;;;;;3.83;2.40;;;;;;;;;;5135642;27;20421;-67
2022/06/03 11:36:15;;;;;;;3.47;3.17;;;;;;;;;;5135623;27;20444;-66
2022/06/03 11:38:45;;;;;;;3.67;3.47;;;;;;;;;;5135461;27;20537;-67
2022/06/03 11:41:14;;;;;;;3.20;3.00;;;;;;;;;;5135130;27;20524;-66
2022/06/03 11:43:46;;;;;;;4.93;4.10;;;;;;;;;;5135368;27;20449;-67
2022/06/03 11:46:15;;;;;;;3.33;3.10;;;;;;;;;;5135431;27;20425;-66
2022/06/03 11:48:45;;;;;;;4.13;3.83;;;;;;;;;;5135173;27;20560;-66
2022/06/03 11:51:13;;;;;;;3.30;3.07;;;;;;;;;;5135107;27;20479;-66
2022/06/03 11:53:47;;;;;;;3.20;3.00;;;;;;;;;;5135176;27;20437;-66
2022/06/03 11:56:15;;;;;;;3.40;3.10;;;;;;;;;;5134745;27;20449;-65
2022/06/03 11:58:48;;;;;;;2.80;2.60;;;;;;;;;;5134835;27;20438;-66
2022/06/03 12:01:19;;;;;;;3.90;3.37;;;;;;;;;;5135123;27;20521;-66
2022/06/03 12:03:52;;;;;;;3.73;3.30;;;;;;;;;;5135102;27;20429;-66
2022/06/03 12:06:23;;;;;;;3.03;2.83;;;;;;;;;;5135181;27;20423;-66
2022/06/03 12:08:53;;;;;;;2.90;2.70;;;;;;;;;;5135537;27;20505;-66
2022/06/03 12:14:13;;;;;;;3.47;3.17;;;;;;;;;;5134611;27;21015;-66
2022/06/03 12:16:53;;;;;;;5.07;3.80;;;;;;;;;;5134660;27;20438;-65
2022/06/03 12:19:35;;;;;;;3.53;2.90;;;;;;;;;;5135320;27;20530;-66
2022/06/03 12:22:19;;;;;;;3.90;3.20;;;;;;;;;;5134839;27;20463;-65
2022/06/03 12:24:48;;;;;;;3.20;3.00;;;;;;;;;;5134523;27;20982;-66
2022/06/03 12:27:21;;;;;;;3.97;3.50;;;;;;;;;;5134248;27;20450;-65
2022/06/03 12:29:53;;;;;;;3.20;2.80;;;;;;;;;;5135279;27;20427;-66
2022/06/03 12:32:24;;;;;;;3.83;2.43;;;;;;;;;;5134266;27;20531;-66
2022/06/03 12:34:51;;;;;;;3.10;2.80;;;;;;;;;;5134587;27;20509;-65
2022/06/03 12:37:27;;;;;;;3.00;2.80;;;;;;;;;;5133979;27;20527;-74
2022/06/03 12:39:59;;;;;;;3.20;3.00;;;;;;;;;;5134544;27;20551;-68
2022/06/03 12:42:40;;;;;;;4.07;3.77;;;;;;;;;;5134358;27;20434;-67
2022/06/03 12:45:22;;;;;;;4.10;3.80;;;;;;;;;;5134386;27;20440;-67
2022/06/03 12:47:50;;;;;;;3.10;2.90;;;;;;;;;;5130322;27;20866;-67
2022/06/03 12:50:31;;;;;;;3.53;3.20;;;;;;;;;;5134507;28;20493;-67
2022/06/03 12:53:02;;;;;;;3.97;3.13;;;;;;;;;;5134352;28;20430;-67
2022/06/03 12:55:31;;;;;;;4.53;3.00;;;;;;;;;;5134435;28;20444;-68
2022/06/03 12:58:00;;;;;;;2.77;2.60;;;;;;;;;;5133953;28;20958;-68
2022/06/03 13:00:32;;;;;;;3.00;2.70;;;;;;;;;;5133980;28;20539;-67
2022/06/03 13:03:00;;;;;;;4.07;3.17;;;;;;;;;;5133852;28;20420;-67
2022/06/03 13:05:35;;;;;;;3.23;2.93;;;;;;;;;;5124008;28;20460;-67
2022/06/03 13:08:06;;;;;;;2.70;2.50;;;;;;;;;;5112828;28;20562;-67
2022/06/03 13:10:53;;;;;;;3.83;3.53;;;;;;;;;;5115019;28;20567;-68
2022/06/03 13:13:44;;;;;;;3.00;2.80;;;;;;;;;;5117707;28;20468;-67
2022/06/03 13:16:31;;;;;;;4.30;3.50;;;;;;;;;;5117274;28;20833;-68
2022/06/03 13:19:00;;;;;;;3.87;3.47;;;;;;;;;;5117855;28;20443;-68
2022/06/03 13:21:29;;;;;;;4.07;2.80;;;;;;;;;;5117479;28;20885;-67
2022/06/03 13:23:59;;;;;;;3.13;2.60;;;;;;;;;;5117593;28;20452;-68
2022/06/03 13:26:44;;;;;;;3.70;2.50;;;;;;;;;;5117542;28;20503;-68
2022/06/03 13:29:13;;;;;;;5.17;2.93;;;;;;;;;;5117474;28;20537;-68
2022/06/03 13:32:01;;;;;;;2.40;2.13;;;;;;;;;;5116960;28;20475;-67
2022/06/03 13:34:32;;;;;;;2.63;2.53;;;;;;;;;;5117456;28;20443;-67
2022/06/03 13:37:32;;;;;;;4.77;3.43;;;;;;;;;;5117621;28;20477;-67
2022/06/03 13:40:19;;;;;;;3.33;3.13;;;;;;;;;;5116819;28;20907;-68
2022/06/03 13:43:03;;;;;;;2.73;2.53;;;;;;;;;;5117336;28;20775;-68
2022/06/03 13:45:49;;;;;;;3.60;2.87;;;;;;;;;;5117615;28;20564;-68
2022/06/03 13:48:18;;;;;;;3.00;2.80;;;;;;;;;;5116656;28;20474;-68
2022/06/03 13:50:46;;;;;;;2.60;2.40;;;;;;;;;;5116530;28;20584;-67
2022/06/03 13:53:14;;;;;;;4.80;3.07;;;;;;;;;;5116426;28;20506;-68
2022/06/03 13:55:52;;;;;;;3.03;2.80;;;;;;;;;;5116749;28;20441;-67
2022/06/03 13:58:20;;;;;;;9.70;3.43;;;;;;;;;;5117007;28;20430;-67
2022/06/03 14:00:55;;;;;;;3.10;2.80;;;;;;;;;;5116814;28;20490;-67
2022/06/03 14:03:24;;;;;;;2.60;2.40;;;;;;;;;;5116423;28;20439;-67
2022/06/03 14:05:57;;;;;;;2.97;2.70;;;;;;;;;;5116285;28;20945;-68
2022/06/03 14:08:27;;;;;;;4.03;2.87;;;;;;;;;;5116484;28;20914;-67
2022/06/03 14:10:59;;;;;;;7.03;2.53;;;;;;;;;;5117427;28;20494;-68
2022/06/03 14:13:32;;;;;;;5.40;3.93;;;;;;;;;;5116271;28;20541;-68
2022/06/03 14:16:02;;;;;;;2.87;2.60;;;;;;;;;;5116621;28;20510;-67
2022/06/03 14:18:50;;;;;;;2.70;2.50;;;;;;;;;;5116497;28;20534;-67
2022/06/03 14:21:19;;;;;;;3.17;2.60;;;;;;;;;;5116025;28;20446;-68
2022/06/03 14:23:47;;;;;;;2.43;2.23;;;;;;;;;;5116513;28;20530;-68
2022/06/03 14:26:18;;;;;;;4.20;3.90;;;;;;;;;;5116583;28;20440;-68
2022/06/03 14:28:50;;;;;;;2.70;2.50;;;;;;;;;;5116068;28;20532;-68
2022/06/03 14:31:23;;;;;;;3.00;2.80;;;;;;;;;;5116923;28;20901;-69
2022/06/03 14:33:52;;;;;;;6.40;3.13;;;;;;;;;;5116470;28;20398;-68
2022/06/03 14:36:19;;;;;;;2.53;2.33;;;;;;;;;;5115631;28;20509;-69
2022/06/03 14:38:49;;;;;;;3.23;2.80;;;;;;;;;;5115727;28;20443;-68
2022/06/03 14:41:20;;;;;;;3.77;3.47;;;;;;;;;;5116327;28;20532;-68
2022/06/03 14:43:47;;;;;;;2.87;2.67;;;;;;;;;;5116076;28;20450;-68
2022/06/03 14:46:16;;;;;;;2.87;2.67;;;;;;;;;;5116007;28;20521;-68
2022/06/03 14:48:47;;;;;;;2.90;2.70;;;;;;;;;;5115262;28;20587;-68
2022/06/03 14:51:16;;;;;;;2.57;2.47;;;;;;;;;;5116050;28;20811;-68
2022/06/03 14:53:46;;;;;;;2.57;2.37;;;;;;;;;;5115308;28;20453;-68
2022/06/03 14:56:20;;;;;;;2.63;2.43;;;;;;;;;;5115121;28;20950;-68
2022/06/03 14:58:50;;;;;;;4.37;2.40;;;;;;;;;;5115549;28;20467;-68
2022/06/03 15:01:26;;;;;;;5.23;2.60;;;;;;;;;;5116492;28;20493;-68
2022/06/03 15:03:56;;;;;;;2.50;2.40;;;;;;;;;;5115887;28;20597;-68
2022/06/03 15:06:24;;;;;;;3.23;2.93;;;;;;;;;;5115821;28;20443;-68
2022/06/03 15:08:54;;;;;;;2.50;2.40;;;;;;;;;;5115063;28;20452;-67
2022/06/03 15:11:26;;;;;;;7.97;2.70;;;;;;;;;;5115019;28;20466;-68
2022/06/03 15:13:55;;;;;;;3.37;3.10;;;;;;;;;;5114963;28;20441;-68
2022/06/03 15:16:22;;;;;;;3.00;2.87;;;;;;;;;;5114900;28;20479;-68
2022/06/03 15:18:50;;;;;;;3.43;3.13;;;;;;;;;;5115130;28;20536;-68
2022/06/03 15:21:21;;;;;;;2.90;2.70;;;;;;;;;;5115292;28;20453;-67
2022/06/03 15:23:51;;;;;;;4.17;3.47;;;;;;;;;;5115442;28;20427;-68
2022/06/03 15:26:20;;;;;;;4.87;3.07;;;;;;;;;;5115066;28;20454;-68
2022/06/03 15:28:50;;;;;;;4.53;2.87;;;;;;;;;;5114611;28;20546;-68
2022/06/03 15:31:22;;;;;;;2.87;2.63;;;;;;;;;;5114502;28;20965;-68
2022/06/03 15:33:52;;;;;;;6.60;3.27;;;;;;;;;;5114079;28;20473;-68
2022/06/03 15:36:21;;;;;;;9.00;2.87;;;;;;;;;;5114875;28;20483;-68
2022/06/03 15:38:49;;;;;;;2.67;2.53;;;;;;;;;;5114767;28;20518;-68
2022/06/03 15:41:20;;;;;;;2.90;2.47;;;;;;;;;;5114970;28;20502;-68
2022/06/03 15:43:48;;;;;;;5.37;2.57;;;;;;;;;;5115040;28;20784;-68
2022/06/03 15:46:28;;;;;;;3.77;2.77;;;;;;;;;;5114394;28;20407;-68
2022/06/03 15:49:00;;;;;;;2.90;2.70;;;;;;;;;;5114765;28;20494;-68
2022/06/03 15:51:27;;;;;;;2.60;2.40;;;;;;;;;;5114945;28;20500;-69
2022/06/03 15:53:56;;;;;;;4.93;2.90;;;;;;;;;;5114103;28;20534;-68
2022/06/03 15:56:32;;;;;;;4.70;2.97;;;;;;;;;;5114456;28;20434;-69
2022/06/03 15:59:14;;;;;;;5.40;3.20;;;;;;;;;;5114478;28;20429;-68
2022/06/03 16:01:47;;;;;;;3.53;3.00;;;;;;;;;;5112167;28;20931;-68
2022/06/03 16:04:25;;;;;;;3.80;3.50;;;;;;;;;;5114334;28;20520;-68
2022/06/03 16:06:59;;;;;;;3.43;3.13;;;;;;;;;;5114509;28;20528;-68